METAR AND TAF INFORMATION
METAR FOR LSGS
ADDS - METARS form results

(0217 UTC 23 January 2019)
Data provider http://aviationweather.gov/metar/data/
 
METAR text: LSGS 230150Z AUTO 09004KT CAVOK M04/M10 Q1000
Conditions at: LSGS (SION (MIL/CIV/AU, CH) observed 0150 UTC 23 January 2019
Temperature: -4.0°C (25°F)
Dewpoint: -10.0°C (14°F) [RH = 63%]
Pressure (altimeter): 29.53 inches Hg (1000.0 mb)
Winds: from the E (90 degrees) at 5 MPH (4 knots; 2.1 m/s)
Visibility: 6 or more miles (10+ km)
Ceiling: ceiling and visibility are OK
Clouds: unknown
Weather: no significant weather observed at this time

METAR text: LSGS 230120Z AUTO 08004KT CAVOK M04/M10 Q1000
Conditions at: LSGS (SION (MIL/CIV/AU, CH) observed 0120 UTC 23 January 2019
Temperature: -4.0°C (25°F)
Dewpoint: -10.0°C (14°F) [RH = 63%]
Pressure (altimeter): 29.53 inches Hg (1000.0 mb)
Winds: from the E (80 degrees) at 5 MPH (4 knots; 2.1 m/s)
Visibility: 6 or more miles (10+ km)
Ceiling: ceiling and visibility are OK
Clouds: unknown
Weather: no significant weather observed at this time

Forecast for: LSGS (SION (MIL/CIV/AU, CH)
Text: TAF LSGS 221425Z 2215/2224 VRB03KT CAVOK
Forecast period: 1500 UTC 22 January 2019 to 0000 UTC 23 January 2019
Forecast type: FROM: standard forecast or significant change
Winds: variable direction winds at 3 MPH (3 knots; 1.5 m/s)
Visibility: 6 or more miles 10+ km)
Ceiling: unknown
Clouds: missing
Weather: NSW  (no significant weather)

 AIRPORT MAP

 RUNWAY INFORMATION
Runway 07 Runway length 0 ft Runway width 0 ft
Runway elevation 1578 ft Runway displaced threshold 0 ft Runway heading 0
Runway 25 Runway length 0 ft Runway width 0 ft
Runway elevation 1581 ft Runway displaced threshold 0 ft Runway heading 0
Runway 07L Runway length 1820 ft Runway width 98 ft
Runway elevation 1578 ft Runway displaced threshold 0 ft Runway heading 73
Runway 25R Runway length 1820 ft Runway width 98 ft
Runway elevation 1581 ft Runway displaced threshold 328 ft Runway heading 253
Runway 07R Runway length 6562 ft Runway width 131 ft
Runway elevation 1580 ft Runway displaced threshold 164 ft Runway heading 73
Runway 25L Runway length 6562 ft Runway width 131 ft
Runway elevation 1585 ft Runway displaced threshold 164 ft Runway heading 253

 AIRPORT FREQUENCIES
Type A/G Name SWISS MILI Frequency 134.275 MHZ
Type APP Name RADAR Frequency 126.825 MHZ
Type GND Name GND Frequency 121.7 MHZ
Type INFO Name INFO Frequency 122.35 MHZ
Type TWR Name TWR Frequency 118.275 MHZ

 AIRPORT NEAR NAVIGATION AIDS
Type VOR-DME Name Montana Frequency 115850 KHZ
Type VOR-DME Name Sion Frequency 112150 KHZ



Powered by Virtual Airlines Manager [v2.6.2]